createdAt,value
2023-01-17T00:01:21.587Z,0.00
2023-01-17T00:05:46.970Z,0.00
2023-01-17T00:09:53.625Z,0.00
2023-01-17T00:14:00.811Z,0.00
2023-01-17T00:18:07.615Z,0.00
2023-01-17T00:22:48.536Z,0.00
2023-01-17T00:27:13.411Z,0.00
2023-01-17T00:31:20.382Z,0.00
2023-01-17T00:35:29.289Z,0.00
2023-01-17T00:39:35.913Z,0.10
2023-01-17T00:44:01.150Z,0.00
2023-01-17T00:48:26.667Z,0.10
2023-01-17T00:52:52.067Z,0.10
2023-01-17T00:57:17.578Z,0.00
2023-01-17T01:01:43.279Z,0.40
2023-01-17T01:06:08.669Z,0.13
2023-01-17T01:10:34.267Z,0.10
2023-01-17T01:14:59.818Z,0.10
2023-01-17T01:19:25.642Z,0.07
2023-01-17T01:23:51.267Z,0.47
2023-01-17T01:28:24.516Z,0.07
2023-01-17T01:32:54.048Z,0.00
2023-01-17T01:37:00.998Z,0.10
2023-01-17T01:41:07.682Z,0.10
2023-01-17T01:45:21.093Z,0.00
2023-01-17T01:49:29.589Z,0.00
2023-01-17T01:53:39.608Z,0.10
2023-01-17T01:57:49.647Z,0.10
2023-01-17T02:02:00.128Z,0.00
2023-01-17T02:06:35.090Z,0.10
2023-01-17T02:10:42.642Z,0.07
2023-01-17T02:14:49.399Z,0.00
2023-01-17T02:19:39.862Z,0.10
2023-01-17T02:24:14.558Z,0.00
2023-01-17T02:28:39.085Z,0.00
2023-01-17T02:33:00.784Z,0.00
2023-01-17T02:37:10.422Z,0.20
2023-01-17T02:41:33.442Z,0.00
2023-01-17T02:45:40.279Z,0.00
2023-01-17T02:49:47.477Z,0.00
2023-01-17T02:54:28.340Z,0.00
2023-01-17T02:59:06.313Z,0.00
2023-01-17T03:03:25.117Z,0.00
2023-01-17T03:07:32.986Z,0.00
2023-01-17T03:11:39.674Z,0.10
2023-01-17T03:15:47.154Z,0.00
2023-01-17T03:19:53.839Z,0.10
2023-01-17T03:24:00.558Z,0.10
2023-01-17T03:28:07.291Z,0.10
2023-01-17T03:32:13.950Z,0.10
2023-01-17T03:36:20.638Z,0.10
2023-01-17T03:40:27.320Z,0.10
2023-01-17T03:44:34.261Z,0.30
2023-01-17T03:48:41.305Z,0.20
2023-01-17T03:52:47.975Z,0.20
2023-01-17T03:56:54.639Z,1.90
2023-01-17T04:01:01.429Z,0.10
2023-01-17T04:05:08.671Z,0.13
2023-01-17T04:09:15.378Z,0.13
2023-01-17T04:13:22.057Z,0.10
2023-01-17T04:17:28.897Z,0.10
2023-01-17T04:21:35.564Z,0.10
2023-01-17T04:25:42.278Z,0.10
2023-01-17T04:29:49.060Z,0.20
2023-01-17T04:33:55.731Z,0.10
2023-01-17T04:38:02.629Z,0.20
2023-01-17T04:42:09.292Z,0.20
2023-01-17T04:46:15.973Z,0.10
2023-01-17T04:50:22.682Z,0.30
2023-01-17T04:54:29.373Z,0.30
2023-01-17T04:58:36.227Z,0.30
2023-01-17T05:02:42.922Z,0.30
2023-01-17T05:06:49.664Z,0.30
2023-01-17T05:10:56.464Z,0.30
2023-01-17T05:15:03.358Z,1.03
2023-01-17T05:19:13.016Z,0.30
2023-01-17T05:23:19.695Z,0.30
2023-01-17T05:27:26.922Z,0.50
2023-01-17T05:31:33.841Z,0.50
2023-01-17T05:35:43.698Z,0.27
2023-01-17T05:39:50.422Z,0.20
2023-01-17T05:43:57.150Z,0.20
2023-01-17T05:48:04.569Z,0.60
2023-01-17T05:52:11.412Z,0.30
2023-01-17T05:56:18.106Z,0.17
2023-01-17T06:00:32.919Z,0.20
2023-01-17T06:04:39.707Z,0.37
2023-01-17T06:08:46.478Z,0.10
2023-01-17T06:13:06.324Z,0.33
2023-01-17T06:17:13.010Z,0.50
2023-01-17T06:21:19.784Z,1.37
2023-01-17T06:25:26.472Z,2.17
2023-01-17T06:29:33.146Z,1.97
2023-01-17T06:33:39.833Z,2.27
2023-01-17T06:37:46.515Z,2.77
2023-01-17T06:41:53.202Z,3.00
2023-01-17T06:46:00.893Z,2.93
2023-01-17T06:50:09.235Z,3.37
2023-01-17T06:54:16.039Z,3.67
2023-01-17T06:58:23.336Z,2.97
2023-01-17T07:02:30.953Z,2.87
2023-01-17T07:06:37.661Z,2.70
2023-01-17T07:10:45.705Z,2.10
2023-01-17T07:14:52.385Z,2.43
2023-01-17T07:19:02.018Z,2.03
2023-01-17T07:23:08.727Z,2.07
2023-01-17T07:27:15.370Z,1.67
2023-01-17T07:31:22.146Z,2.67
2023-01-17T07:35:28.938Z,1.77
2023-01-17T07:39:37.277Z,1.60
2023-01-17T07:43:44.008Z,2.40
2023-01-17T07:47:50.701Z,1.90
2023-01-17T07:51:57.478Z,2.07
2023-01-17T07:56:07.356Z,1.37
2023-01-17T08:00:14.351Z,1.47
2023-01-17T08:04:21.038Z,1.57
2023-01-17T08:08:28.692Z,1.40
2023-01-17T08:12:36.017Z,1.40
2023-01-17T08:16:42.839Z,0.80
2023-01-17T08:20:49.608Z,0.80
2023-01-17T08:24:56.312Z,1.27
2023-01-17T08:29:03.024Z,1.47
2023-01-17T08:33:09.725Z,0.97
2023-01-17T08:37:16.441Z,0.70
2023-01-17T08:41:27.797Z,0.80
2023-01-17T08:45:34.530Z,0.70
2023-01-17T08:49:41.335Z,1.00
2023-01-17T08:53:48.597Z,0.70
2023-01-17T08:57:56.883Z,0.80
2023-01-17T09:02:14.721Z,1.20
2023-01-17T09:06:21.536Z,2.10
2023-01-17T09:10:28.218Z,1.00
2023-01-17T09:14:39.553Z,0.73
2023-01-17T09:18:46.273Z,0.80
2023-01-17T09:22:55.224Z,0.90
2023-01-17T09:27:01.982Z,0.80
2023-01-17T09:31:08.886Z,0.90
2023-01-17T09:35:18.303Z,1.30
2023-01-17T09:39:25.192Z,1.23
2023-01-17T09:43:47.566Z,0.93
2023-01-17T09:47:55.436Z,1.35
2023-01-17T09:52:03.491Z,1.10
2023-01-17T09:56:21.786Z,2.00
2023-01-17T10:00:59.487Z,1.63
2023-01-17T10:05:18.505Z,2.07
2023-01-17T10:09:42.324Z,2.10
2023-01-17T10:15:04.529Z,2.67
2023-01-17T10:19:36.837Z,2.37
2023-01-17T10:23:46.297Z,2.15
2023-01-17T10:28:12.054Z,2.70
2023-01-17T10:37:05.528Z,3.17
2023-01-17T10:41:38.413Z,2.60
2023-01-17T10:45:53.291Z,3.53
2023-01-17T10:50:03.181Z,2.07
2023-01-17T10:54:31.001Z,2.90
2023-01-17T10:58:39.239Z,2.83
2023-01-17T11:02:51.588Z,3.07
2023-01-17T11:07:16.698Z,2.75
2023-01-17T11:11:31.968Z,2.67
2023-01-17T11:15:42.324Z,2.90
2023-01-17T11:20:28.018Z,2.53
2023-01-17T11:29:32.486Z,2.27
2023-01-17T11:33:48.200Z,3.33
2023-01-17T11:38:02.550Z,2.17
2023-01-17T11:47:20.482Z,2.35
2023-01-17T11:51:33.803Z,1.92
2023-01-17T11:55:40.759Z,1.70
2023-01-17T11:59:48.431Z,1.87
2023-01-17T12:04:23.606Z,1.60
2023-01-17T12:08:51.955Z,1.48
2023-01-17T12:13:28.736Z,1.40
2023-01-17T12:18:06.624Z,0.95
2023-01-17T12:22:50.475Z,1.15
2023-01-17T12:27:24.985Z,0.65
2023-01-17T12:31:37.254Z,0.90
2023-01-17T12:35:53.293Z,0.60
2023-01-17T12:40:05.702Z,0.60
2023-01-17T12:44:15.940Z,0.60
2023-01-17T12:48:29.240Z,0.60
2023-01-17T12:52:45.583Z,0.60
2023-01-17T12:56:56.449Z,0.50
2023-01-17T13:01:39.804Z,0.50
2023-01-17T13:05:48.534Z,0.70
2023-01-17T13:10:02.362Z,0.30
2023-01-17T13:14:10.178Z,0.20
2023-01-17T13:18:23.165Z,0.30
2023-01-17T13:22:32.050Z,0.10
2023-01-17T13:26:51.127Z,0.20
2023-01-17T13:31:21.856Z,1.00
2023-01-17T13:35:43.678Z,0.20
2023-01-17T13:39:56.124Z,0.30
2023-01-17T13:44:29.386Z,0.20
2023-01-17T13:48:40.658Z,0.20
2023-01-17T13:52:47.386Z,0.10
2023-01-17T13:57:28.531Z,0.10
2023-01-17T14:01:45.642Z,0.15
2023-01-17T14:06:10.151Z,0.10
2023-01-17T14:10:38.653Z,0.20
2023-01-17T14:14:49.048Z,0.10
2023-01-17T14:18:56.031Z,0.10
2023-01-17T14:23:20.600Z,0.50
2023-01-17T14:27:30.075Z,0.10
2023-01-17T14:31:37.855Z,0.10
2023-01-17T14:35:54.272Z,0.10
2023-01-17T14:40:01.331Z,0.10
2023-01-17T14:44:11.179Z,0.10
2023-01-17T14:48:23.360Z,0.10
2023-01-17T14:52:30.150Z,0.10
2023-01-17T14:56:36.959Z,0.10
2023-01-17T15:00:43.823Z,0.10
2023-01-17T15:04:54.879Z,0.00
2023-01-17T15:09:08.276Z,0.10
2023-01-17T15:13:20.392Z,0.10
2023-01-17T15:17:29.181Z,0.20
2023-01-17T15:21:42.559Z,0.13
2023-01-17T15:25:51.798Z,0.15
2023-01-17T15:30:02.176Z,0.13
2023-01-17T15:34:36.267Z,0.20
2023-01-17T15:38:52.032Z,0.20
2023-01-17T15:43:00.972Z,0.20
2023-01-17T15:47:33.179Z,0.17
2023-01-17T15:51:45.990Z,0.30
2023-01-17T15:55:52.751Z,0.20
2023-01-17T16:00:20.207Z,0.67
2023-01-17T16:04:35.297Z,0.63
2023-01-17T16:08:51.862Z,0.30
2023-01-17T16:12:59.604Z,0.30
2023-01-17T16:17:14.017Z,0.30
2023-01-17T16:21:26.762Z,0.40
2023-01-17T16:25:33.431Z,0.50
2023-01-17T16:29:41.935Z,0.50
2023-01-17T16:33:50.545Z,0.60
2023-01-17T16:38:06.319Z,0.73
2023-01-17T16:42:13.282Z,1.07
2023-01-17T16:46:20.920Z,0.60
2023-01-17T16:50:27.925Z,1.37
2023-01-17T16:54:34.686Z,0.80
2023-01-17T16:58:41.518Z,1.10
2023-01-17T17:02:51.726Z,0.80
2023-01-17T17:06:58.472Z,1.00
2023-01-17T17:11:20.248Z,0.70
2023-01-17T17:15:27.006Z,0.50
2023-01-17T17:19:34.490Z,0.80
2023-01-17T17:23:41.258Z,0.60
2023-01-17T17:27:47.958Z,0.70
2023-01-17T17:31:54.761Z,0.73
2023-01-17T17:36:06.455Z,1.03
2023-01-17T17:40:13.390Z,1.20
2023-01-17T17:44:20.092Z,0.93
2023-01-17T17:48:26.773Z,1.13
2023-01-17T17:52:33.550Z,1.30
2023-01-17T17:56:40.857Z,1.00
2023-01-17T18:00:48.093Z,1.87
2023-01-17T18:04:54.840Z,1.10
2023-01-17T18:09:02.879Z,1.20
2023-01-17T18:13:09.620Z,1.63
2023-01-17T18:17:20.224Z,1.67
2023-01-17T18:21:29.083Z,1.57
2023-01-17T18:25:36.528Z,1.60
2023-01-17T18:29:43.245Z,1.63
2023-01-17T18:33:49.984Z,1.70
2023-01-17T18:37:57.578Z,1.20
2023-01-17T18:42:04.502Z,1.63
2023-01-17T18:46:12.064Z,2.07
2023-01-17T18:50:18.822Z,2.03
2023-01-17T18:54:26.365Z,2.10
2023-01-17T18:58:36.661Z,2.13
2023-01-17T19:02:43.432Z,2.27
2023-01-17T19:06:50.271Z,1.70
2023-01-17T19:10:57.388Z,1.43
2023-01-17T19:15:04.374Z,1.47
2023-01-17T19:19:14.558Z,1.03
2023-01-17T19:23:21.726Z,1.87
2023-01-17T19:27:28.441Z,1.27
2023-01-17T19:31:42.391Z,1.33
2023-01-17T19:35:49.405Z,1.33
2023-01-17T19:39:56.245Z,1.77
2023-01-17T19:44:05.872Z,1.73
2023-01-17T19:48:14.391Z,1.37
2023-01-17T19:52:22.260Z,1.33
2023-01-17T19:56:29.948Z,1.90
2023-01-17T20:00:46.219Z,1.70
2023-01-17T20:04:53.277Z,1.13
2023-01-17T20:09:00.117Z,1.30
2023-01-17T20:13:06.799Z,1.20
2023-01-17T20:17:13.512Z,1.30
2023-01-17T20:21:23.554Z,1.13
2023-01-17T20:25:30.257Z,1.30
2023-01-17T20:29:40.570Z,1.43
2023-01-17T20:33:50.210Z,1.20
2023-01-17T20:37:57.103Z,1.27
2023-01-17T20:42:04.421Z,1.30
2023-01-17T20:46:11.339Z,1.80
2023-01-17T20:50:18.086Z,1.60
2023-01-17T20:54:24.872Z,1.97
2023-01-17T20:58:33.162Z,1.87
2023-01-17T21:02:39.889Z,1.47
2023-01-17T21:06:46.990Z,1.47
2023-01-17T21:10:53.748Z,1.73
2023-01-17T21:15:00.446Z,1.70
2023-01-17T21:19:11.792Z,1.97
2023-01-17T21:23:20.121Z,1.87
2023-01-17T21:27:26.837Z,1.73
2023-01-17T21:31:35.569Z,1.63
2023-01-17T21:35:42.373Z,1.67
2023-01-17T21:39:54.677Z,2.07
2023-01-17T21:44:27.669Z,2.15
2023-01-17T21:52:40.961Z,1.93
2023-01-17T21:57:06.268Z,2.33
2023-01-17T22:01:21.814Z,1.43
2023-01-17T22:05:28.618Z,2.97
2023-01-17T22:09:35.306Z,2.47
2023-01-17T22:13:44.115Z,2.70
2023-01-17T22:17:50.820Z,2.13
2023-01-17T22:21:57.497Z,1.80
2023-01-17T22:26:10.054Z,2.73
2023-01-17T22:30:16.978Z,2.60
2023-01-17T22:34:23.845Z,2.20
2023-01-17T22:38:31.633Z,2.10
2023-01-17T22:42:39.149Z,2.10
2023-01-17T22:46:45.863Z,2.37
2023-01-17T22:50:58.146Z,2.63
2023-01-17T22:55:05.812Z,2.65
2023-01-17T22:59:12.569Z,2.87
2023-01-17T23:03:19.356Z,2.23
2023-01-17T23:07:26.987Z,2.80
2023-01-17T23:11:39.671Z,2.87
2023-01-17T23:16:05.104Z,2.67
2023-01-17T23:20:12.149Z,3.30
2023-01-17T23:24:18.840Z,2.60
2023-01-17T23:28:25.563Z,3.27
2023-01-17T23:32:32.400Z,2.93
2023-01-17T23:36:39.122Z,3.33
2023-01-17T23:41:08.616Z,2.83
2023-01-17T23:45:15.300Z,2.30
2023-01-17T23:49:22.006Z,2.20
2023-01-17T23:53:28.860Z,2.70
2023-01-17T23:57:36.935Z,3.07
